Time;durP1;ratioP1;P1;durP2;ratioP2;P2;SDS_P1;SDS_P2;PMS_P1;PMS_P2;Temp;Humidity;BMP_temperature;BMP_pressure;BME280_temperature;BME280_humidity;BME280_pressure;Samples;Min_cycle;Max_cycle;Signal;HPM_P1;HPM_P2
2020/12/11 00:00:06;;;;;;;16.02;9.43;;;;;;;4.17;68.89;98776.91;3875102;23;20020;-80
2020/12/11 00:01:41;;;;;;;15.27;8.57;;;;;;;4.16;68.78;98771.75;3873244;23;20024;-80
2020/12/11 00:03:13;;;;;;;15.55;9.00;;;;;;;4.12;69.07;98776.47;3874997;23;20090;-81
2020/12/11 00:04:44;;;;;;;16.33;8.27;;;;;;;4.11;69.17;98777.44;3872902;22;20098;-81
2020/12/11 00:06:20;;;;;;;15.18;8.50;;;;;;;4.12;69.08;98778.25;3875781;23;20024;-80
2020/12/11 00:07:51;;;;;;;15.90;9.10;;;;;;;4.06;69.50;98775.19;3873153;23;20111;-81
2020/12/11 00:09:22;;;;;;;18.98;9.80;;;;;;;4.06;69.43;98775.19;3875206;23;20031;-82
2020/12/11 00:10:53;;;;;;;20.58;10.38;;;;;;;4.01;69.40;98769.50;3872524;22;20027;-82
2020/12/11 00:12:25;;;;;;;15.48;9.70;;;;;;;4.06;69.46;98775.19;3875603;23;20027;-82
2020/12/11 00:13:57;;;;;;;15.25;9.23;;;;;;;4.15;69.28;98770.94;3876859;23;20024;-80
2020/12/11 00:15:28;;;;;;;17.25;8.77;;;;;;;4.17;69.10;98771.59;3876392;23;20031;-80
2020/12/11 00:17:01;;;;;;;14.43;7.63;;;;;;;4.25;69.07;98772.75;3872241;22;20024;-81
2020/12/11 00:18:31;;;;;;;15.70;8.55;;;;;;;4.25;69.04;98756.88;3875573;23;20035;-80
2020/12/11 00:20:05;;;;;;;16.45;9.30;;;;;;;4.19;69.20;98759.09;3872402;23;20020;-81
2020/12/11 00:21:40;;;;;;;14.15;8.13;;;;;;;4.16;68.90;98764.63;3875762;23;20032;-81
2020/12/11 00:23:11;;;;;;;15.48;8.63;;;;;;;4.11;69.36;98760.75;3873805;23;20345;-80
2020/12/11 00:24:42;;;;;;;16.40;8.95;;;;;;;4.11;69.24;98758.94;3872890;23;20048;-80
2020/12/11 00:26:15;;;;;;;14.68;8.60;;;;;;;4.10;69.13;98754.59;3875664;23;20047;-80
2020/12/11 00:27:47;;;;;;;15.20;8.40;;;;;;;4.11;69.24;98758.09;3872965;23;20028;-81
2020/12/11 00:29:17;;;;;;;16.33;8.68;;;;;;;4.09;69.36;98752.94;3876073;23;20020;-81
2020/12/11 00:30:49;;;;;;;14.90;8.63;;;;;;;4.11;69.18;98761.56;3872606;22;20016;-81
2020/12/11 00:32:21;;;;;;;15.80;8.60;;;;;;;4.11;69.32;98756.28;3875352;23;20028;-80
2020/12/11 00:33:52;;;;;;;14.88;7.97;;;;;;;4.10;69.18;98759.06;3873502;23;20095;-79
2020/12/11 00:35:23;;;;;;;13.05;7.82;;;;;;;4.11;69.00;98753.63;3875207;23;20019;-81
2020/12/11 00:36:54;;;;;;;14.68;8.13;;;;;;;4.14;68.98;98761.31;3872283;22;20024;-80
2020/12/11 00:38:29;;;;;;;12.85;7.32;;;;;;;4.24;68.63;98760.50;3875589;23;20393;-80
2020/12/11 00:40:01;;;;;;;11.73;6.20;;;;;;;4.27;68.57;98758.41;3872524;23;20050;-81
2020/12/11 00:41:32;;;;;;;14.60;7.90;;;;;;;4.30;68.47;98749.34;3875657;23;20024;-80
2020/12/11 00:43:03;;;;;;;12.95;7.18;;;;;;;4.33;68.23;98746.44;3873181;22;20043;-80
2020/12/11 00:44:34;;;;;;;15.13;7.75;;;;;;;4.34;68.15;98751.59;3875025;23;20357;-81
2020/12/11 00:46:05;;;;;;;15.93;7.78;;;;;;;4.37;67.98;98742.53;3873355;23;20016;-82
2020/12/11 00:47:38;;;;;;;15.52;7.47;;;;;;;4.36;67.79;98744.38;3875148;23;20369;-81
2020/12/11 00:49:09;;;;;;;14.07;7.50;;;;;;;4.39;67.81;98742.44;3872812;22;20024;-80
2020/12/11 00:50:40;;;;;;;13.40;7.43;;;;;;;4.42;67.80;98731.53;3875429;23;20070;-81
2020/12/11 00:52:11;;;;;;;12.65;6.90;;;;;;;4.38;67.75;98733.63;3872750;23;20376;-81
2020/12/11 00:53:43;;;;;;;12.90;6.88;;;;;;;4.39;67.64;98731.84;3876375;23;20028;-80
2020/12/11 00:55:16;;;;;;;11.38;5.80;;;;;;;4.40;67.71;98734.34;3873207;22;20023;-80
2020/12/11 00:56:47;;;;;;;12.80;6.78;;;;;;;4.41;67.74;98727.22;3875365;23;20016;-80
2020/12/11 00:58:19;;;;;;;13.20;7.57;;;;;;;4.39;67.59;98726.56;3873910;23;20027;-81
2020/12/11 00:59:50;;;;;;;15.00;7.90;;;;;;;4.32;67.59;98718.31;3874847;23;20031;-80
2020/12/11 01:01:21;;;;;;;17.15;9.23;;;;;;;4.31;67.61;98729.88;3872815;22;20020;-80
2020/12/11 01:02:53;;;;;;;15.40;8.57;;;;;;;4.27;67.49;98728.47;3876173;23;20024;-81
2020/12/11 01:04:24;;;;;;;15.32;9.15;;;;;;;4.25;67.44;98714.56;3874304;23;20024;-82
2020/12/11 01:05:55;;;;;;;13.63;7.95;;;;;;;4.25;67.54;98719.84;3877528;23;20095;-81
2020/12/11 01:07:26;;;;;;;15.48;9.02;;;;;;;4.24;67.37;98707.59;3880919;22;20028;-83
2020/12/11 01:09:00;;;;;;;14.55;9.32;;;;;;;4.18;66.97;98698.38;3884336;23;20024;-82
2020/12/11 01:10:33;;;;;;;15.23;9.40;;;;;;;4.18;67.28;98703.69;3885119;23;20024;-83
2020/12/11 01:12:05;;;;;;;15.48;8.32;;;;;;;4.18;67.30;98696.56;3886223;23;20035;-83
2020/12/11 01:13:36;;;;;;;15.50;9.10;;;;;;;4.21;67.10;98698.94;3882638;22;20024;-82
2020/12/11 01:15:08;;;;;;;16.35;9.27;;;;;;;4.20;67.08;98707.84;3878825;23;20020;-81
2020/12/11 01:16:41;;;;;;;14.57;7.70;;;;;;;4.24;67.05;98718.16;3874162;23;20023;-81
2020/12/11 01:18:13;;;;;;;15.13;8.45;;;;;;;4.24;66.98;98712.88;3876367;23;20044;-80
2020/12/11 01:19:44;;;;;;;15.43;8.45;;;;;;;4.26;66.79;98708.25;3873167;22;20020;-81
2020/12/11 01:21:15;;;;;;;14.52;8.38;;;;;;;4.24;66.94;98702.28;3875560;23;20082;-80
2020/12/11 01:22:46;;;;;;;15.60;8.13;;;;;;;4.23;66.57;98698.78;3874211;23;20024;-80
2020/12/11 01:24:18;;;;;;;12.98;7.07;;;;;;;4.25;66.80;98693.38;3875530;23;20094;-81
2020/12/11 01:25:50;;;;;;;14.77;9.23;;;;;;;4.25;66.79;98691.56;3877846;22;20020;-83
2020/12/11 01:27:23;;;;;;;15.88;7.88;;;;;;;4.22;66.68;98681.25;3888280;23;20031;-82
2020/12/11 01:28:54;;;;;;;14.68;8.38;;;;;;;4.20;66.74;98676.09;3887083;22;20020;-84
2020/12/11 01:30:26;;;;;;;13.52;8.20;;;;;;;4.22;66.66;98670.66;3890589;23;20031;-84
2020/12/11 01:31:58;;;;;;;12.75;7.82;;;;;;;4.19;66.76;98663.03;3887754;22;20012;-82
2020/12/11 01:33:33;;;;;;;16.05;8.02;;;;;;;4.20;66.29;98664.69;3891080;23;20016;-81
2020/12/11 01:35:05;;;;;;;15.80;9.23;;;;;;;4.20;66.37;98667.34;3887819;23;20020;-81
2020/12/11 01:36:42;;;;;;;15.38;9.23;;;;;;;4.17;66.27;98664.97;3889557;23;20042;-80
2020/12/11 01:38:14;;;;;;;14.57;8.43;;;;;;;4.10;66.59;98667.31;3878888;23;20020;-82
2020/12/11 01:39:47;;;;;;;14.40;9.05;;;;;;;4.10;66.40;98659.38;3876663;23;20024;-81
2020/12/11 01:41:19;;;;;;;15.13;7.82;;;;;;;4.10;66.33;98662.03;3879505;23;20024;-81
2020/12/11 01:42:49;;;;;;;15.00;8.75;;;;;;;4.11;66.21;98666.34;3877518;22;20042;-80
2020/12/11 01:44:27;;;;;;;15.32;8.60;;;;;;;4.13;65.95;98664.41;3878925;23;20026;-81
2020/12/11 01:45:59;;;;;;;14.02;8.50;;;;;;;4.15;66.32;98662.47;3882606;23;20024;-80
2020/12/11 01:47:30;;;;;;;13.13;7.38;;;;;;;4.18;66.19;98666.66;3876812;23;20035;-82
2020/12/11 01:49:04;;;;;;;15.23;9.25;;;;;;;4.13;66.03;98667.06;3873877;22;20028;-81
2020/12/11 01:50:36;;;;;;;16.10;8.85;;;;;;;4.15;66.28;98659.81;3875611;23;20365;-82
2020/12/11 01:52:09;;;;;;;16.75;8.95;;;;;;;4.21;65.96;98661.91;3871064;23;20012;-81
2020/12/11 01:53:43;;;;;;;14.48;9.10;;;;;;;4.20;65.92;98664.69;3874820;23;20353;-81
2020/12/11 01:55:15;;;;;;;12.93;7.57;;;;;;;4.23;66.09;98653.81;3872910;22;20353;-81
2020/12/11 01:56:52;;;;;;;15.15;8.73;;;;;;;4.24;65.80;98649.38;3875817;23;20038;-85
2020/12/11 01:58:26;;;;;;;15.10;8.60;;;;;;;4.22;66.01;98645.06;3874248;23;20028;-82
2020/12/11 02:00:02;;;;;;;16.65;9.20;;;;;;;4.20;65.98;98644.38;3880757;23;20020;-80
2020/12/11 02:01:35;;;;;;;15.07;9.25;;;;;;;4.18;66.05;98633.06;3882460;23;20028;-81
2020/12/11 02:03:09;;;;;;;15.40;8.85;;;;;;;4.17;66.12;98630.56;3887150;23;20035;-85
2020/12/11 02:04:41;;;;;;;13.30;8.18;;;;;;;4.12;66.27;98636.28;3876548;23;20046;-80
2020/12/11 02:06:12;;;;;;;16.10;9.45;;;;;;;4.06;66.15;98620.97;3875226;23;20024;-80
2020/12/11 02:07:43;;;;;;;16.30;10.05;;;;;;;4.02;66.33;98628.31;3872563;22;20603;-80
2020/12/11 02:09:16;;;;;;;18.88;10.55;;;;;;;3.95;66.32;98619.28;3875425;23;20031;-82
2020/12/11 02:10:48;;;;;;;19.55;11.07;;;;;;;3.92;66.46;98618.72;3875948;23;20028;-81
2020/12/11 02:12:18;;;;;;;19.27;10.30;;;;;;;3.90;66.43;98613.56;3877101;23;20024;-81
2020/12/11 02:13:51;;;;;;;17.20;9.77;;;;;;;3.93;66.20;98615.09;3876020;22;20024;-81
2020/12/11 02:15:22;;;;;;;16.48;10.07;;;;;;;3.94;66.26;98616.78;3879029;23;20028;-81
2020/12/11 02:16:57;;;;;;;17.38;10.07;;;;;;;3.94;66.16;98616.78;3876040;23;20024;-82
2020/12/11 02:18:28;;;;;;;16.52;9.65;;;;;;;3.95;66.27;98619.28;3876006;23;20024;-82
2020/12/11 02:20:01;;;;;;;16.17;9.82;;;;;;;3.97;66.05;98619.16;3872954;22;20051;-80
2020/12/11 02:21:33;;;;;;;17.23;9.65;;;;;;;3.99;65.96;98611.91;3877619;23;20020;-81
2020/12/11 02:23:05;;;;;;;15.02;8.68;;;;;;;4.01;66.09;98602.03;3872883;23;20031;-81
2020/12/11 02:24:35;;;;;;;15.80;8.93;;;;;;;4.03;65.88;98600.09;3875210;23;20016;-80
2020/12/11 02:26:07;;;;;;;14.23;7.97;;;;;;;4.05;65.91;98595.50;3872201;22;20501;-80
2020/12/11 02:27:38;;;;;;;15.82;9.02;;;;;;;4.04;65.88;98593.81;3874675;23;20030;-80
2020/12/11 02:29:09;;;;;;;13.05;7.53;;;;;;;4.04;65.86;98599.13;3873200;23;20028;-80
2020/12/11 02:30:40;;;;;;;16.15;8.52;;;;;;;4.05;65.92;98603.44;3874426;23;20507;-81
2020/12/11 02:32:14;;;;;;;17.70;8.82;;;;;;;4.04;66.00;98591.19;3873048;23;20024;-81
2020/12/11 02:33:44;;;;;;;16.17;9.63;;;;;;;4.06;65.95;98595.34;3872814;23;20020;-80
2020/12/11 02:35:16;;;;;;;15.23;8.25;;;;;;;4.11;65.64;98597.56;3875267;23;20022;-81
2020/12/11 02:36:48;;;;;;;16.73;9.20;;;;;;;4.12;65.67;98593.97;3872689;22;20027;-80
2020/12/11 02:38:19;;;;;;;16.40;9.70;;;;;;;4.12;65.63;98593.13;3875046;23;20024;-80
2020/12/11 02:39:51;;;;;;;16.13;9.80;;;;;;;4.06;65.64;98586.59;3873188;23;20024;-80
2020/12/11 02:41:21;;;;;;;17.50;9.32;;;;;;;4.03;65.98;98579.75;3874726;23;20028;-81
2020/12/11 02:42:53;;;;;;;16.95;10.00;;;;;;;4.05;65.74;98587.56;3872965;22;20020;-81
2020/12/11 02:44:23;;;;;;;16.13;9.80;;;;;;;4.07;65.77;98580.31;3874666;23;20024;-81
2020/12/11 02:45:56;;;;;;;17.25;10.38;;;;;;;4.02;65.61;98575.44;3872169;23;20024;-80
2020/12/11 02:47:32;;;;;;;15.43;8.52;;;;;;;4.03;65.76;98573.63;3874736;23;20028;-81
2020/12/11 02:49:04;;;;;;;16.60;9.93;;;;;;;4.01;65.68;98575.59;3872656;23;20736;-80
2020/12/11 02:50:35;;;;;;;14.13;8.40;;;;;;;3.99;65.64;98559.88;3874470;23;20020;-81
2020/12/11 02:52:07;;;;;;;19.05;10.25;;;;;;;4.01;65.72;98563.22;3871970;22;20039;-80
2020/12/11 02:53:39;;;;;;;18.02;9.38;;;;;;;3.99;65.93;98553.72;3875016;23;20024;-81
2020/12/11 02:55:10;;;;;;;17.30;9.45;;;;;;;3.99;65.84;98551.94;3872496;23;20039;-80
2020/12/11 02:56:41;;;;;;;15.82;9.05;;;;;;;4.01;65.78;98546.50;3874226;23;20024;-81
2020/12/11 02:58:13;;;;;;;15.38;9.45;;;;;;;4.00;65.71;98547.47;3872251;22;20020;-81
2020/12/11 02:59:45;;;;;;;15.23;8.07;;;;;;;3.97;65.89;98550.41;3874376;23;20024;-81
2020/12/11 03:01:18;;;;;;;20.92;11.00;;;;;;;3.90;65.93;98547.47;3873167;23;20461;-81
2020/12/11 03:02:51;;;;;;;11.85;7.03;;;;;;;3.94;66.11;98550.69;3875152;23;20032;-82
2020/12/11 03:04:23;;;;;;;12.95;7.43;;;;;;;3.97;66.01;98551.22;3872975;22;20031;-82
2020/12/11 03:05:54;;;;;;;15.88;7.82;;;;;;;4.03;65.81;98549.84;3875333;23;20024;-80
2020/12/11 03:07:26;;;;;;;18.17;9.13;;;;;;;4.05;65.83;98551.38;3872236;23;20020;-80
2020/12/11 03:08:58;;;;;;;14.85;9.10;;;;;;;4.06;65.82;98544.28;3875060;23;20385;-81
2020/12/11 03:10:29;;;;;;;18.48;10.25;;;;;;;4.02;65.86;98541.06;3873277;23;20023;-81
2020/12/11 03:12:00;;;;;;;16.85;9.48;;;;;;;3.96;66.00;98536.34;3876540;23;20222;-81
2020/12/11 03:13:31;;;;;;;17.73;10.15;;;;;;;3.95;66.23;98534.66;3871411;23;20027;-80
2020/12/11 03:15:04;;;;;;;14.00;8.05;;;;;;;3.97;66.09;98540.66;3876048;23;20020;-80
2020/12/11 03:16:35;;;;;;;14.93;8.90;;;;;;;3.98;66.21;98538.81;3872861;22;20031;-82
2020/12/11 03:18:06;;;;;;;16.85;9.75;;;;;;;3.95;66.05;98541.78;3875105;23;20020;-81
2020/12/11 03:19:37;;;;;;;16.30;8.73;;;;;;;3.88;66.25;98531.72;3872439;23;20028;-80
2020/12/11 03:21:09;;;;;;;14.30;7.88;;;;;;;3.91;66.13;98533.28;3875225;23;20031;-82
2020/12/11 03:22:41;;;;;;;17.38;9.85;;;;;;;3.89;66.23;98522.81;3874691;22;20045;-80
2020/12/11 03:24:12;;;;;;;16.80;9.63;;;;;;;3.88;66.26;98513.22;3876047;23;20024;-81
2020/12/11 03:25:43;;;;;;;15.70;9.63;;;;;;;3.82;66.44;98511.16;3872984;23;20074;-82
2020/12/11 03:27:16;;;;;;;14.50;9.13;;;;;;;3.83;66.42;98510.19;3876194;23;20055;-82
2020/12/11 03:28:48;;;;;;;19.33;11.20;;;;;;;3.81;66.43;98506.00;3872605;22;20035;-82
2020/12/11 03:30:19;;;;;;;18.10;10.63;;;;;;;3.76;66.44;98509.06;3875340;23;20024;-82
2020/12/11 03:31:50;;;;;;;17.27;9.63;;;;;;;3.74;66.65;98514.47;3873579;23;20023;-81
2020/12/11 03:33:21;;;;;;;18.27;10.02;;;;;;;3.73;66.68;98509.34;3878841;23;20031;-81
2020/12/11 03:34:54;;;;;;;15.63;9.25;;;;;;;3.74;66.78;98506.53;3878640;23;20020;-82
2020/12/11 03:36:25;;;;;;;16.02;8.95;;;;;;;3.73;66.57;98504.06;3880131;23;20033;-81
2020/12/11 03:37:56;;;;;;;14.43;7.95;;;;;;;3.68;66.91;98508.94;3886106;23;20024;-83
2020/12/11 03:39:29;;;;;;;16.50;9.75;;;;;;;3.72;66.74;98503.22;3886655;23;20027;-80
2020/12/11 03:41:00;;;;;;;16.05;9.32;;;;;;;3.75;66.73;98510.03;3873544;22;20027;-81
2020/12/11 03:42:31;;;;;;;14.65;8.50;;;;;;;3.80;66.56;98512.25;3875343;23;20051;-80
2020/12/11 03:44:02;;;;;;;;;;;;;;;3.69;66.64;98505.28;3873898;23;20096;-80
2020/12/11 03:45:33;;;;;;;15.02;9.13;;;;;;;3.76;66.63;98506.44;3875541;23;19923;-80
2020/12/11 03:47:04;;;;;;;16.80;9.35;;;;;;;3.71;66.81;98500.69;3871760;22;20035;-80
2020/12/11 03:48:35;;;;;;;;;;;;;;;3.52;67.23;98491.78;3875701;23;20020;-80
2020/12/11 03:50:06;;;;;;;15.30;8.90;;;;;;;3.63;66.89;98490.00;3872012;23;19915;-81
2020/12/11 03:51:38;;;;;;;19.05;10.75;;;;;;;3.59;66.83;98489.44;3875315;23;20469;-80
2020/12/11 03:53:09;;;;;;;14.82;8.30;;;;;;;3.69;66.68;98494.72;3872275;22;20020;-81
2020/12/11 03:54:41;;;;;;;13.20;7.55;;;;;;;3.74;66.37;98495.16;3875421;23;20598;-80
2020/12/11 03:56:13;;;;;;;14.95;8.00;;;;;;;3.73;66.57;98499.59;3873700;23;20016;-80
2020/12/11 03:57:44;;;;;;;14.18;8.30;;;;;;;3.75;66.48;98486.25;3872652;22;20109;-80
2020/12/11 03:59:16;;;;;;;16.25;8.23;;;;;;;3.74;66.25;98479.28;3879137;23;20031;-81
2020/12/11 04:00:48;;;;;;;15.85;9.90;;;;;;;3.73;66.37;98483.72;3872152;23;20024;-80
2020/12/11 04:02:20;;;;;;;13.48;8.15;;;;;;;3.77;66.41;98472.88;3873403;23;20047;-80
2020/12/11 04:03:52;;;;;;;13.20;7.47;;;;;;;3.79;66.32;98479.69;3872113;23;20484;-80
2020/12/11 04:05:23;;;;;;;13.52;7.03;;;;;;;3.81;66.11;98471.66;3874495;23;20077;-81
2020/12/11 04:06:54;;;;;;;15.13;8.68;;;;;;;3.77;66.24;98470.25;3871939;23;20024;-80
2020/12/11 04:08:26;;;;;;;16.27;8.95;;;;;;;3.72;66.01;98470.66;3874736;23;20370;-81
2020/12/11 04:09:57;;;;;;;16.00;9.05;;;;;;;3.71;65.99;98471.63;3871624;22;20542;-80
2020/12/11 04:11:29;;;;;;;17.73;10.10;;;;;;;3.70;65.95;98465.53;3875112;23;20024;-80
2020/12/11 04:13:00;;;;;;;15.05;9.63;;;;;;;3.69;65.95;98466.50;3871016;23;20365;-80
2020/12/11 04:14:31;;;;;;;15.98;8.95;;;;;;;3.67;66.12;98467.63;3875036;23;20330;-81
2020/12/11 04:16:03;;;;;;;15.32;8.45;;;;;;;3.67;66.09;98454.41;3872603;22;20032;-80
2020/12/11 04:17:34;;;;;;;14.40;8.43;;;;;;;3.67;65.86;98451.75;3875203;23;20031;-80
2020/12/11 04:19:05;;;;;;;12.52;7.75;;;;;;;3.67;65.98;98446.47;3872442;23;20016;-80
2020/12/11 04:20:36;;;;;;;12.88;7.43;;;;;;;3.70;65.84;98440.88;3874075;23;20035;-82
2020/12/11 04:22:07;;;;;;;15.57;9.55;;;;;;;3.72;65.96;98433.66;3871844;22;20031;-80
2020/12/11 04:23:39;;;;;;;14.75;9.02;;;;;;;3.69;65.95;98426.00;3874606;23;20020;-80
2020/12/11 04:25:10;;;;;;;15.30;9.32;;;;;;;3.65;65.99;98429.91;3874564;23;20099;-81
2020/12/11 04:26:43;;;;;;;14.93;9.35;;;;;;;3.60;65.95;98417.13;3876401;23;20024;-80
2020/12/11 04:28:14;;;;;;;16.42;9.23;;;;;;;3.57;65.91;98414.75;3871113;23;20016;-81
2020/12/11 04:29:45;;;;;;;14.73;7.43;;;;;;;3.56;65.91;98406.00;3873550;23;20036;-80
2020/12/11 04:31:19;;;;;;;12.35;7.75;;;;;;;3.55;66.01;98404.31;3872381;22;20031;-82
2020/12/11 04:32:51;;;;;;;16.50;9.60;;;;;;;3.52;65.91;98401.13;3874795;23;20090;-82
2020/12/11 04:34:22;;;;;;;14.50;8.63;;;;;;;3.47;65.97;98413.91;3873143;23;20231;-80
2020/12/11 04:35:54;;;;;;;16.35;8.85;;;;;;;3.45;66.12;98408.78;3875291;23;20024;-80
2020/12/11 04:37:25;;;;;;;14.80;9.52;;;;;;;3.45;66.11;98415.88;3871449;22;20020;-79
2020/12/11 04:38:57;;;;;;;12.75;8.18;;;;;;;3.43;66.06;98405.44;3875300;23;20024;-79
2020/12/11 04:40:28;;;;;;;13.18;8.02;;;;;;;3.47;65.95;98406.84;3872033;23;20016;-80
2020/12/11 04:42:02;;;;;;;14.27;8.98;;;;;;;3.49;65.90;98396.97;3874500;23;20051;-80
2020/12/11 04:43:33;;;;;;;12.45;7.30;;;;;;;3.46;65.68;98402.53;3871972;22;20020;-80
2020/12/11 04:45:05;;;;;;;12.80;8.07;;;;;;;3.46;65.91;98406.94;3874632;23;20020;-80
2020/12/11 04:46:39;;;;;;;14.52;8.77;;;;;;;3.46;65.68;98402.53;3872421;23;20028;-81
2020/12/11 04:48:11;;;;;;;13.40;7.80;;;;;;;3.48;65.84;98397.94;3874126;23;20388;-81
2020/12/11 04:49:43;;;;;;;15.27;7.78;;;;;;;3.47;65.74;98408.63;3871954;23;20027;-80
2020/12/11 04:51:15;;;;;;;11.48;6.40;;;;;;;3.49;65.69;98402.25;3873768;23;20031;-80
2020/12/11 04:52:48;;;;;;;13.75;8.02;;;;;;;3.52;65.66;98407.25;3871144;23;20024;-81
2020/12/11 04:54:22;;;;;;;14.98;9.07;;;;;;;3.51;65.71;98410.03;3875552;23;20031;-80
2020/12/11 04:55:56;;;;;;;14.27;8.40;;;;;;;3.49;65.60;98410.19;3872506;22;20020;-80
2020/12/11 04:57:32;;;;;;;13.77;7.93;;;;;;;3.48;65.54;98408.50;3873891;23;20028;-80
2020/12/11 04:59:03;;;;;;;12.50;6.70;;;;;;;3.52;65.56;98409.88;3872760;23;20468;-81
2020/12/11 05:00:35;;;;;;;15.52;8.25;;;;;;;3.50;65.53;98409.19;3874480;23;20024;-80
2020/12/11 05:02:12;;;;;;;20.52;10.00;;;;;;;3.53;65.63;98410.72;3871959;22;20449;-80
2020/12/11 05:03:43;;;;;;;14.60;8.30;;;;;;;3.54;65.71;98413.22;3872066;23;20028;-81
2020/12/11 05:05:33;;;;;;;13.60;7.60;;;;;;;3.53;65.84;98416.84;3874480;23;20019;-80
2020/12/11 05:07:08;;;;;;;10.98;6.50;;;;;;;3.57;65.71;98410.31;3871320;22;20020;-80
2020/12/11 05:08:39;;;;;;;11.45;5.93;;;;;;;3.60;65.60;98409.19;3875049;23;20031;-80
2020/12/11 05:10:13;;;;;;;13.98;7.93;;;;;;;3.62;65.61;98406.41;3871343;23;20020;-80
2020/12/11 05:11:45;;;;;;;14.73;9.10;;;;;;;3.52;65.77;98401.13;3876741;23;20086;-81
2020/12/11 05:13:17;;;;;;;14.20;9.43;;;;;;;3.44;66.08;98409.75;3872217;22;20035;-81
2020/12/11 05:14:54;;;;;;;18.30;10.30;;;;;;;3.39;66.27;98411.97;3875757;23;20066;-81
2020/12/11 05:16:25;;;;;;;12.80;7.85;;;;;;;3.39;66.24;98401.41;3873773;23;20020;-82
2020/12/11 05:17:56;;;;;;;15.60;9.15;;;;;;;3.40;66.09;98395.16;3875523;23;20027;-81
2020/12/11 05:19:29;;;;;;;12.85;7.75;;;;;;;3.45;66.09;98400.03;3874668;23;20503;-82
2020/12/11 05:21:18;;;;;;;14.35;8.32;;;;;;;3.43;65.73;98392.22;3879499;23;20020;-82
2020/12/11 05:22:50;;;;;;;11.48;6.47;;;;;;;3.46;65.92;98396.38;3877719;22;20051;-82
2020/12/11 05:24:20;;;;;;;14.95;7.95;;;;;;;3.46;65.99;98397.25;3880481;23;20024;-82
2020/12/11 05:25:52;;;;;;;;;;;;;;;3.33;65.95;98400.16;3877846;23;20024;-82
2020/12/11 05:27:35;;;;;;;13.80;7.90;;;;;;;3.42;65.96;98395.84;3880637;23;19916;-82
2020/12/11 05:29:06;;;;;;;13.88;7.40;;;;;;;3.35;65.96;98398.22;3877413;22;20566;-82
2020/12/11 05:30:37;;;;;;;13.85;8.27;;;;;;;3.34;66.00;98399.19;3878889;23;20024;-81
2020/12/11 05:32:08;;;;;;;13.93;8.05;;;;;;;3.32;66.07;98393.22;3871379;23;20043;-82
2020/12/11 05:33:57;;;;;;;13.25;6.25;;;;;;;3.35;66.11;98394.72;3873547;22;20024;-81
2020/12/11 05:35:31;;;;;;;13.45;8.07;;;;;;;3.32;66.11;98384.44;3876673;23;20453;-81
2020/12/11 05:37:02;;;;;;;14.10;7.97;;;;;;;3.31;66.17;98398.63;3871562;23;20189;-81
2020/12/11 05:38:33;;;;;;;13.57;7.85;;;;;;;3.30;66.08;98396.97;3873563;23;20038;-81
2020/12/11 05:40:14;;;;;;;14.40;8.13;;;;;;;3.27;66.02;98408.63;3874480;22;20023;-82
2020/12/11 05:41:47;;;;;;;14.80;8.32;;;;;;;3.29;66.17;98401.41;3874303;23;20038;-81
2020/12/11 05:43:19;;;;;;;12.75;8.10;;;;;;;3.30;66.34;98399.63;3872053;23;20023;-82
2020/12/11 05:44:50;;;;;;;17.23;9.63;;;;;;;3.22;66.63;98411.69;3878557;23;20318;-82
2020/12/11 05:46:29;;;;;;;14.90;8.98;;;;;;;3.15;66.76;98397.38;3874494;22;20098;-82
2020/12/11 05:48:01;;;;;;;15.90;9.35;;;;;;;3.16;66.82;98390.28;3881184;23;20020;-83
2020/12/11 05:49:32;;;;;;;13.55;7.40;;;;;;;3.18;66.81;98393.59;3885340;23;20023;-83
2020/12/11 05:51:11;;;;;;;13.57;7.25;;;;;;;3.17;66.57;98379.56;3887721;23;20024;-83
2020/12/11 05:52:47;;;;;;;14.70;9.48;;;;;;;3.12;66.63;98373.88;3885913;22;20315;-84
2020/12/11 05:54:19;;;;;;;13.07;7.72;;;;;;;3.10;66.87;98370.53;3888077;23;20031;-83
2020/12/11 05:55:52;;;;;;;15.07;8.57;;;;;;;3.05;67.07;98375.38;3885768;23;20016;-84
2020/12/11 05:57:26;;;;;;;13.82;7.85;;;;;;;2.99;67.12;98375.94;3888150;22;20019;-85
2020/12/11 05:58:58;;;;;;;14.68;7.38;;;;;;;3.02;67.18;98373.03;3885176;22;20035;-83
2020/12/11 06:00:29;;;;;;;13.65;6.90;;;;;;;3.03;67.19;98377.31;3886335;23;20035;-82
2020/12/11 06:02:01;;;;;;;15.82;8.25;;;;;;;3.03;67.18;98374.69;3878120;23;20016;-82
2020/12/11 06:03:37;;;;;;;16.20;8.32;;;;;;;2.98;67.19;98375.09;3882111;23;20032;-82
2020/12/11 06:05:10;;;;;;;16.35;9.07;;;;;;;2.96;67.51;98377.88;3875845;23;20024;-85
2020/12/11 06:06:44;;;;;;;13.35;7.78;;;;;;;2.97;67.35;98370.81;3883945;23;20124;-81
2020/12/11 06:08:20;;;;;;;14.77;8.18;;;;;;;2.91;67.66;98372.19;3884710;23;20038;-83
2020/12/11 06:09:51;;;;;;;15.82;9.20;;;;;;;2.90;67.60;98372.31;3883228;23;20031;-83
2020/12/11 06:11:22;;;;;;;16.17;8.38;;;;;;;2.89;67.75;98379.41;3880010;23;20023;-83
2020/12/11 06:12:57;;;;;;;16.45;8.93;;;;;;;2.89;67.72;98368.84;3873083;22;20353;-83
2020/12/11 06:14:47;;;;;;;17.00;9.77;;;;;;;2.83;67.81;98369.41;3880937;23;20023;-81
2020/12/11 06:16:20;;;;;;;16.33;8.55;;;;;;;2.84;67.89;98371.06;3875034;23;20327;-82
2020/12/11 06:17:58;;;;;;;16.05;9.10;;;;;;;2.83;67.71;98368.56;3890223;22;20016;-82
2020/12/11 06:19:29;;;;;;;16.17;8.48;;;;;;;2.81;67.89;98366.06;3874101;22;20024;-81
2020/12/11 06:21:01;;;;;;;;;;;;;;;2.71;68.09;98365.22;3877222;23;20042;-81
2020/12/11 06:22:32;;;;;;;15.68;9.18;;;;;;;2.77;67.94;98372.56;3874964;23;20347;-84
2020/12/11 06:24:04;;;;;;;17.25;9.18;;;;;;;2.80;67.83;98367.84;3877962;23;20016;-83
2020/12/11 06:25:35;;;;;;;18.52;10.75;;;;;;;2.76;67.72;98365.63;3879230;22;20039;-80
2020/12/11 06:27:08;;;;;;;18.55;10.70;;;;;;;2.65;67.95;98356.84;3882359;23;20032;-81
2020/12/11 06:28:43;;;;;;;16.65;9.57;;;;;;;2.67;67.94;98355.88;3878085;23;20024;-82
2020/12/11 06:30:27;;;;;;;16.95;9.82;;;;;;;2.63;67.91;98357.97;3884467;23;20016;-82
2020/12/11 06:31:58;;;;;;;16.63;8.88;;;;;;;2.61;68.21;98352.84;3851294;23;628512;-84
2020/12/11 06:33:29;;;;;;;18.92;9.98;;;;;;;2.64;68.13;98349.09;3884419;23;20020;-84
2020/12/11 06:35:11;;;;;;;18.25;9.43;;;;;;;2.61;68.20;98344.06;3881749;23;20024;-82
2020/12/11 06:36:44;;;;;;;16.95;9.30;;;;;;;2.59;68.34;98353.94;3879336;22;20027;-82
2020/12/11 06:38:39;;;;;;;15.40;9.02;;;;;;;2.54;68.16;98343.78;3885882;23;20131;-85
2020/12/11 06:40:10;;;;;;;17.25;10.73;;;;;;;2.57;68.32;98348.78;3882714;23;20032;-83
2020/12/11 06:41:42;;;;;;;19.35;11.10;;;;;;;2.49;68.46;98338.94;3881406;23;20020;-81
2020/12/11 06:43:36;;;;;;;17.10;10.60;;;;;;;2.49;68.49;98346.00;3878867;22;20080;-85
2020/12/11 06:45:16;;;;;;;20.15;10.73;;;;;;;2.47;68.53;98342.66;3878339;23;20381;-82
2020/12/11 06:47:07;;;;;;;17.92;10.50;;;;;;;2.43;68.82;98341.25;3880908;23;20020;-84
2020/12/11 06:49:06;;;;;;;16.20;8.93;;;;;;;2.44;68.77;98333.19;3884572;23;20028;-86
2020/12/11 06:51:04;;;;;;;18.30;8.90;;;;;;;2.43;68.82;98336.81;3880646;23;20352;-86
2020/12/11 06:52:35;;;;;;;19.33;10.73;;;;;;;2.48;68.72;98333.75;3876499;23;20520;-82
2020/12/11 06:54:06;;;;;;;15.82;8.70;;;;;;;2.49;68.73;98335.44;3882955;23;20031;-82
2020/12/11 06:55:56;;;;;;;19.13;10.65;;;;;;;2.45;68.79;98324.31;3878015;22;20035;-88
2020/12/11 06:57:33;;;;;;;18.08;9.80;;;;;;;2.41;68.85;98322.91;3881527;23;20027;-82
2020/12/11 06:59:23;;;;;;;17.42;9.70;;;;;;;2.38;69.32;98323.19;3879841;23;20516;-86
2020/12/11 07:00:57;;;;;;;17.55;10.00;;;;;;;2.43;69.08;98325.44;3880935;22;20020;-87
2020/12/11 07:02:29;;;;;;;17.10;9.00;;;;;;;2.48;68.94;98315.31;3877259;23;20028;-85
2020/12/11 07:04:00;;;;;;;23.08;11.30;;;;;;;2.48;68.88;98304.75;3878368;23;20035;-81
2020/12/11 07:05:31;;;;;;;17.95;9.75;;;;;;;2.48;69.08;98305.59;3878847;23;20016;-82
2020/12/11 07:07:02;;;;;;;;;;;;;;;2.37;69.44;98310.13;3875183;23;20026;-82
2020/12/11 07:08:33;;;;;;;18.38;10.50;;;;;;;2.40;69.16;98301.97;3878194;23;19915;-86
2020/12/11 07:10:06;;;;;;;17.50;9.10;;;;;;;2.45;68.95;98308.50;3875558;23;20517;-81
2020/12/11 07:11:37;;;;;;;19.20;11.20;;;;;;;2.40;69.11;98307.22;3877741;23;20020;-83
2020/12/11 07:13:09;;;;;;;22.80;12.77;;;;;;;2.41;69.04;98315.00;3872965;23;20020;-81
2020/12/11 07:14:40;;;;;;;19.88;10.45;;;;;;;2.40;69.17;98309.88;3878481;23;20395;-84
2020/12/11 07:16:13;;;;;;;20.00;11.45;;;;;;;2.42;69.17;98314.03;3876576;22;20020;-82
2020/12/11 07:17:46;;;;;;;16.88;10.15;;;;;;;2.47;68.91;98314.47;3876928;23;20024;-83